ンジャメナ の空港の天気 - METARとTAF

ンジャメナ国際空港 ( FTTJ / NDJ ) - チャド ンジャメナ
飛行場実況気象(Metar)
観測時間07/22 19:00 WAT (07/22 18:00 UTC)
風向・風速不定 2m/s
視程10km以上
天気現象
少しの雲 雲底高度 1520m
気温31℃
湿度62%
気圧1009hPa
METARFTTJ 221800Z VRB03KT 9999 FEW050CB 31/23 Q1009 TEMPO TS
過去の天気等 Google飛行場航空写真 Wunderground天気予報

過去48時間のMETAR

飛行場予報(TAF)
発表時間: 7/22 18:00 WAT (7/22 17:00 UTC)
予報対象時間: 22日19時 WAT ~ 24日1時 WAT
風向・風速南西 3m/s
視程10km以上
少しの雲 雲底高度 1010m
23日2時 WAT ~ 23日7時 WAT に 確率 30% で一時的に
風向・風速東 8m/s 瞬間風速 13m/s
視程3000m
天気現象雷雨
23日16時 WAT ~ 23日19時 WAT に一時的に
天気現象
TAF FTTJ 221700Z 2218/2324 23006KT 9999 FEW033
PROB30 TEMPO 2301/2306 09015G25KT 3000 TSRA
TEMPO 2315/2318 TS